Time;durP1;ratioP1;P1;durP2;ratioP2;P2;SDS_P1;SDS_P2;PMS_P1;PMS_P2;Temp;Humidity;BMP_temperature;BMP_pressure;BME280_temperature;BME280_humidity;BME280_pressure;Samples;Min_cycle;Max_cycle;Signal;HPM_P1;HPM_P2
2023/01/30 00:02:34;;;;;;;36.38;22.75;;;;;;;0.14;63.16;100426.22;10418491;28;20068;-65
2023/01/30 00:07:36;;;;;;;38.50;24.08;;;;;;;0.14;63.25;100409.94;10420775;28;20063;-65
2023/01/30 00:12:38;;;;;;;42.08;25.13;;;;;;;0.22;63.23;100388.41;10423091;28;20045;-65
2023/01/30 00:17:40;;;;;;;61.03;34.63;;;;;;;0.34;62.96;100388.28;10425360;28;20052;-65
2023/01/30 00:22:41;;;;;;;41.20;25.80;;;;;;;0.41;63.14;100389.06;10427277;28;20235;-66
2023/01/30 00:28:00;;;;;;;38.38;23.67;;;;;;;0.51;63.12;100385.50;10425791;28;20049;-65
2023/01/30 00:33:02;;;;;;;47.05;27.02;;;;;;;0.57;63.04;100374.28;10425299;28;20048;-65
2023/01/30 00:38:03;;;;;;;37.95;23.30;;;;;;;0.45;63.69;100383.88;10418206;28;20044;-65
2023/01/30 00:48:26;;;;;;;37.70;23.77;;;;;;;0.53;63.50;100376.06;10417440;28;20614;-66
2023/01/30 00:53:27;;;;;;;37.80;23.08;;;;;;;0.58;63.40;100358.00;10416288;28;20049;-66
2023/01/30 00:58:29;;;;;;;35.15;21.80;;;;;;;0.65;63.18;100349.34;10416801;28;20044;-65
2023/01/30 01:03:31;;;;;;;32.90;20.23;;;;;;;0.63;63.24;100317.63;10416024;28;20041;-66
2023/01/30 01:08:32;;;;;;;32.75;21.00;;;;;;;0.64;63.27;100320.16;10419337;28;20041;-65
2023/01/30 01:13:34;;;;;;;32.80;20.75;;;;;;;0.57;63.42;100335.69;10419772;28;20045;-65
2023/01/30 01:18:36;;;;;;;32.25;19.13;;;;;;;0.59;63.52;100310.81;10425026;28;20049;-66
2023/01/30 01:23:38;;;;;;;30.60;19.13;;;;;;;0.60;63.59;100303.06;10424412;28;20119;-65
2023/01/30 01:28:39;;;;;;;30.15;19.17;;;;;;;0.59;63.77;100285.91;10423522;28;20052;-66
2023/01/30 01:33:41;;;;;;;31.83;19.10;;;;;;;0.69;63.49;100271.22;10421785;28;20041;-65
2023/01/30 01:38:43;;;;;;;29.98;18.85;;;;;;;0.61;63.88;100266.16;10417045;28;20712;-65
2023/01/30 01:44:07;;;;;;;28.60;18.25;;;;;;;0.71;63.77;100260.00;10407443;28;20053;-66
2023/01/30 01:49:31;;;;;;;28.40;18.45;;;;;;;0.68;64.08;100246.31;10407952;28;20053;-65
2023/01/30 01:54:50;;;;;;;30.58;17.77;;;;;;;0.61;64.34;100247.31;10423463;28;20056;-65
2023/01/30 01:59:58;;;;;;;27.27;17.15;;;;;;;0.73;63.94;100241.97;10425180;28;20060;-65
2023/01/30 02:05:05;;;;;;;30.10;18.05;;;;;;;0.78;64.02;100241.03;10424070;28;20041;-65
2023/01/30 02:10:12;;;;;;;28.23;18.42;;;;;;;0.79;64.05;100237.56;10423294;28;20045;-65
2023/01/30 02:15:16;;;;;;;31.05;18.85;;;;;;;0.73;64.49;100229.94;10425268;28;20041;-65
2023/01/30 02:20:28;;;;;;;28.08;17.75;;;;;;;0.70;64.79;100231.72;10425113;28;20048;-65
2023/01/30 02:25:58;;;;;;;27.20;17.45;;;;;;;0.84;64.36;100206.59;10423149;28;20037;-65
2023/01/30 02:31:31;;;;;;;27.80;16.85;;;;;;;0.85;64.66;100221.19;10422898;28;20045;-65
2023/01/30 02:36:59;;;;;;;27.40;17.23;;;;;;;0.90;64.66;100235.69;10423218;28;20131;-65
2023/01/30 02:42:13;;;;;;;26.38;17.40;;;;;;;0.89;65.01;100243.44;10419947;28;20060;-65
2023/01/30 02:47:23;;;;;;;28.50;18.02;;;;;;;0.87;65.05;100240.03;10418748;28;21287;-66
2023/01/30 02:52:26;;;;;;;27.98;17.83;;;;;;;0.85;65.11;100234.06;10422440;28;20045;-65
2023/01/30 02:57:27;;;;;;;28.65;18.15;;;;;;;1.00;64.76;100221.78;10422072;28;20833;-65
2023/01/30 03:03:08;;;;;;;27.92;17.33;;;;;;;0.86;65.20;100197.97;10425093;28;20501;-65
2023/01/30 03:08:27;;;;;;;28.45;17.63;;;;;;;1.01;64.94;100196.88;10427928;28;20508;-65
2023/01/30 03:13:45;;;;;;;28.38;17.98;;;;;;;0.88;65.63;100183.38;10424127;28;20055;-65
2023/01/30 03:18:48;;;;;;;28.92;17.42;;;;;;;0.99;65.12;100167.72;10428334;28;20052;-65
2023/01/30 03:23:49;;;;;;;28.83;17.88;;;;;;;0.92;65.71;100156.69;10429358;28;20045;-65
2023/01/30 03:28:51;;;;;;;27.38;18.08;;;;;;;1.06;65.28;100148.72;10427293;28;20044;-65
2023/01/30 03:33:53;;;;;;;28.00;17.83;;;;;;;0.95;65.95;100159.19;10427739;28;20044;-65
2023/01/30 03:38:55;;;;;;;29.17;18.50;;;;;;;1.08;65.82;100162.41;10421555;28;20041;-65
2023/01/30 03:43:56;;;;;;;29.48;18.27;;;;;;;1.06;65.99;100151.28;10430040;28;20064;-65
2023/01/30 03:48:58;;;;;;;28.95;18.30;;;;;;;1.17;65.53;100137.34;10426176;28;20045;-65
2023/01/30 03:54:00;;;;;;;30.73;18.33;;;;;;;1.24;65.47;100149.22;10429814;28;20053;-65
2023/01/30 03:59:01;;;;;;;30.60;19.20;;;;;;;1.37;65.29;100139.53;10424322;28;20299;-65
2023/01/30 04:04:03;;;;;;;30.42;19.90;;;;;;;1.39;65.33;100130.06;10423682;28;20049;-65
2023/01/30 04:09:04;;;;;;;30.92;19.67;;;;;;;1.51;65.13;100122.09;10419874;28;20044;-65
2023/01/30 04:14:06;;;;;;;30.45;18.98;;;;;;;1.35;65.69;100092.34;10420551;28;20057;-65
2023/01/30 04:19:08;;;;;;;31.20;18.88;;;;;;;1.29;66.14;100100.19;10419129;28;20559;-65
2023/01/30 04:24:09;;;;;;;30.88;19.50;;;;;;;1.23;66.53;100083.13;10418558;28;20052;-65
2023/01/30 04:29:11;;;;;;;30.83;19.30;;;;;;;1.41;66.16;100069.03;10418344;28;20397;-65
2023/01/30 04:34:13;;;;;;;28.70;18.60;;;;;;;1.46;65.98;100056.91;10417679;28;20061;-65
2023/01/30 04:39:14;;;;;;;29.67;19.30;;;;;;;1.35;66.54;100066.59;10418837;28;20053;-65
2023/01/30 04:44:16;;;;;;;29.77;19.20;;;;;;;1.33;66.97;100056.31;10419778;28;20155;-65
2023/01/30 04:49:18;;;;;;;35.03;19.48;;;;;;;1.48;66.63;100052.56;10415964;28;20052;-65
2023/01/30 04:54:19;;;;;;;32.70;19.45;;;;;;;1.41;67.07;100044.97;10412290;28;20053;-65
2023/01/30 04:59:21;;;;;;;28.98;19.17;;;;;;;1.38;67.57;100052.78;10417070;28;20067;-65
2023/01/30 05:04:22;;;;;;;30.48;19.83;;;;;;;1.30;67.87;100028.03;10417364;28;20045;-65
2023/01/30 05:09:24;;;;;;;32.85;20.00;;;;;;;1.25;68.33;100032.44;10416861;28;20054;-65
2023/01/30 05:14:26;;;;;;;30.88;19.85;;;;;;;1.18;68.88;100020.53;10417729;28;20049;-65
2023/01/30 05:19:27;;;;;;;33.72;19.80;;;;;;;1.17;69.43;100018.88;10417167;28;20052;-65
2023/01/30 05:24:29;;;;;;;35.78;22.60;;;;;;;1.24;69.48;99993.81;10413764;28;20127;-65
2023/01/30 05:29:30;;;;;;;41.97;23.88;;;;;;;1.30;69.27;99989.38;10415975;28;20512;-65
2023/01/30 05:34:32;;;;;;;32.05;19.95;;;;;;;1.40;68.86;99984.03;10416890;28;20044;-65
2023/01/30 05:39:34;;;;;;;32.50;20.23;;;;;;;1.36;68.94;99996.97;10415604;28;20052;-65
2023/01/30 05:44:35;;;;;;;30.27;18.98;;;;;;;1.45;68.63;99979.63;10417482;28;20071;-65
2023/01/30 05:49:37;;;;;;;27.45;17.88;;;;;;;1.40;68.89;99984.03;10422649;28;20221;-65
2023/01/30 05:54:38;;;;;;;26.75;17.55;;;;;;;1.51;68.42;99971.75;10420102;28;20049;-65
2023/01/30 05:59:40;;;;;;;28.40;17.42;;;;;;;1.48;68.44;99971.84;10418399;28;20746;-65
2023/01/30 06:04:42;;;;;;;25.02;16.70;;;;;;;1.66;67.97;99976.56;10418112;28;20060;-65
2023/01/30 06:09:43;;;;;;;26.35;16.83;;;;;;;1.66;67.97;99972.28;10417917;28;20068;-65
2023/01/30 06:14:45;;;;;;;22.73;15.65;;;;;;;1.58;68.21;99979.31;10415428;28;20041;-65
2023/01/30 06:19:46;;;;;;;22.38;14.88;;;;;;;1.48;68.65;99992.44;10412645;28;20384;-65
2023/01/30 06:24:48;;;;;;;23.92;15.05;;;;;;;1.59;68.17;99982.72;10415193;28;20051;-65
2023/01/30 06:29:50;;;;;;;32.92;19.48;;;;;;;1.64;68.21;99988.66;10416655;28;20045;-65
2023/01/30 06:34:51;;;;;;;22.35;15.05;;;;;;;1.64;68.25;99979.19;10415829;28;20037;-65
2023/01/30 06:39:53;;;;;;;20.88;14.60;;;;;;;1.59;68.91;99988.75;10416334;28;20494;-65
2023/01/30 06:44:55;;;;;;;20.83;14.07;;;;;;;1.60;68.96;99992.19;10425545;28;20083;-65
2023/01/30 06:49:56;;;;;;;21.95;14.80;;;;;;;1.49;69.73;99994.13;10420745;28;20053;-65
2023/01/30 06:54:58;;;;;;;21.02;14.00;;;;;;;1.55;69.50;99994.00;10421343;28;20077;-65
2023/01/30 07:00:00;;;;;;;19.17;13.00;;;;;;;1.41;70.15;99993.44;10419648;28;20057;-65
2023/01/30 07:05:02;;;;;;;18.40;12.68;;;;;;;1.50;70.14;100030.19;10416538;28;20051;-65
2023/01/30 07:10:06;;;;;;;18.63;12.77;;;;;;;1.41;70.89;100016.63;10420461;28;20049;-65
2023/01/30 07:15:09;;;;;;;18.25;11.60;;;;;;;1.39;71.02;100024.41;10418761;28;20538;-65
2023/01/30 07:20:11;;;;;;;18.33;12.32;;;;;;;1.38;71.30;100015.81;10419698;28;20405;-65
2023/01/30 07:25:13;;;;;;;17.27;12.13;;;;;;;1.58;70.72;100010.25;10420040;28;20059;-65
2023/01/30 07:30:15;;;;;;;16.40;11.23;;;;;;;1.56;70.88;100035.22;10420055;28;20049;-66
2023/01/30 07:35:16;;;;;;;15.43;9.85;;;;;;;1.60;70.83;100028.25;10424206;28;20618;-65
2023/01/30 07:40:19;;;;;;;13.70;9.80;;;;;;;1.70;70.62;100024.59;10428793;28;20164;-65
2023/01/30 07:45:21;;;;;;;15.60;9.52;;;;;;;1.72;70.75;100023.69;10425205;28;20045;-65
2023/01/30 07:50:23;;;;;;;12.85;9.10;;;;;;;1.73;70.73;100027.09;10419724;28;20041;-65
2023/01/30 07:55:25;;;;;;;12.32;8.20;;;;;;;1.92;70.19;100010.31;10430442;28;20049;-65
2023/01/30 08:00:27;;;;;;;12.00;8.50;;;;;;;1.97;70.27;100003.34;10429462;28;20060;-65
2023/01/30 08:05:29;;;;;;;12.02;8.30;;;;;;;1.96;70.56;100002.50;10429991;28;20049;-65
2023/01/30 08:10:31;;;;;;;15.10;8.93;;;;;;;1.89;71.19;100007.84;10428189;28;20048;-65
2023/01/30 08:15:32;;;;;;;15.50;8.63;;;;;;;2.08;70.66;99991.00;10428929;28;20536;-65
2023/01/30 08:20:35;;;;;;;8.98;6.45;;;;;;;2.14;70.46;100014.09;10428092;28;20076;-65
2023/01/30 08:25:36;;;;;;;9.68;6.53;;;;;;;2.15;70.21;100020.97;10428301;28;20370;-65
2023/01/30 08:30:40;;;;;;;10.00;6.40;;;;;;;2.26;70.34;100026.69;10427161;28;20044;-65
2023/01/30 08:35:43;;;;;;;9.63;6.32;;;;;;;2.30;70.13;100012.00;10425050;28;20380;-65
2023/01/30 08:40:45;;;;;;;8.32;6.20;;;;;;;2.24;70.42;100007.81;10423260;28;20435;-65
2023/01/30 08:45:46;;;;;;;9.35;6.15;;;;;;;2.32;70.19;99998.16;10424824;28;20052;-66
2023/01/30 08:50:52;;;;;;;8.65;5.38;;;;;;;2.55;69.83;99985.50;10422528;28;20049;-64
2023/01/30 08:55:54;;;;;;;6.55;4.72;;;;;;;2.66;69.32;99987.81;10415290;28;20143;-64
2023/01/30 09:00:56;;;;;;;5.78;4.18;;;;;;;2.72;69.21;99980.75;10413241;28;20062;-64
2023/01/30 09:05:57;;;;;;;6.28;4.30;;;;;;;2.96;69.04;100002.47;10419764;28;20052;-63
2023/01/30 09:11:01;;;;;;;5.90;4.18;;;;;;;2.91;69.08;99992.25;10420344;28;20045;-63
2023/01/30 09:16:05;;;;;;;5.57;3.60;;;;;;;3.01;68.89;100008.34;10411772;28;20040;-64
2023/01/30 09:21:08;;;;;;;5.50;3.55;;;;;;;3.02;68.73;100008.31;10415663;28;20052;-64
2023/01/30 09:26:09;;;;;;;5.20;3.45;;;;;;;3.07;68.65;100009.91;10412950;28;20047;-64
2023/01/30 09:31:11;;;;;;;4.70;3.30;;;;;;;2.92;68.85;100009.47;10423902;28;20048;-63
2023/01/30 09:36:13;;;;;;;4.60;3.00;;;;;;;3.07;68.92;100017.66;10409082;28;20053;-64
2023/01/30 09:41:42;;;;;;;4.65;2.90;;;;;;;3.38;68.04;100032.25;10419676;28;20494;-64
2023/01/30 09:46:59;;;;;;;4.60;2.75;;;;;;;3.44;68.16;100044.13;10418268;28;20409;-63
2023/01/30 09:52:15;;;;;;;4.15;2.80;;;;;;;3.59;67.52;100017.84;10422042;28;20048;-64
2023/01/30 09:57:23;;;;;;;3.22;2.33;;;;;;;3.44;68.27;100003.63;10403347;28;20557;-64
2023/01/30 10:02:46;;;;;;;3.63;2.30;;;;;;;3.35;68.48;100010.81;10418648;28;20049;-64
2023/01/30 10:07:50;;;;;;;3.42;2.30;;;;;;;3.35;68.43;100013.41;10414600;28;20059;-63
2023/01/30 10:13:10;;;;;;;3.58;2.42;;;;;;;3.20;68.59;100006.94;10418729;28;20059;-64
2023/01/30 10:18:39;;;;;;;3.83;2.35;;;;;;;3.32;68.46;100010.91;10423857;28;20053;-63
2023/01/30 10:24:00;;;;;;;4.25;2.67;;;;;;;3.25;68.67;100017.16;10429340;28;20060;-64
2023/01/30 10:29:07;;;;;;;4.32;3.10;;;;;;;3.50;68.28;100000.00;10420953;28;20068;-64
2023/01/30 10:34:24;;;;;;;4.10;3.05;;;;;;;3.57;67.96;99992.03;10417882;28;20049;-64
2023/01/30 10:39:34;;;;;;;3.92;2.33;;;;;;;3.52;68.10;99995.63;10424134;28;20051;-64
2023/01/30 10:44:41;;;;;;;4.40;2.30;;;;;;;3.63;67.61;99994.44;10427560;28;20099;-64
2023/01/30 10:49:51;;;;;;;3.70;2.20;;;;;;;3.87;67.32;99995.44;10422754;28;20175;-63
2023/01/30 10:55:00;;;;;;;3.60;1.80;;;;;;;4.43;65.81;99994.44;10428877;28;20067;-64
2023/01/30 11:00:15;;;;;;;3.85;2.00;;;;;;;5.03;64.15;100008.75;10424450;28;20060;-64
2023/01/30 11:05:23;;;;;;;3.38;1.80;;;;;;;5.14;64.24;100004.03;10425888;28;20045;-64
2023/01/30 11:10:26;;;;;;;10.63;5.72;;;;;;;5.11;64.25;99996.34;10427872;28;20045;-64
2023/01/30 11:15:39;;;;;;;3.88;2.10;;;;;;;5.18;63.54;99996.09;10421502;28;20072;-64
2023/01/30 11:20:44;;;;;;;5.78;2.15;;;;;;;5.17;63.80;99989.19;10426419;28;20049;-64
2023/01/30 11:25:51;;;;;;;3.95;1.90;;;;;;;5.04;63.69;99987.97;10422272;28;20059;-64
2023/01/30 11:31:21;;;;;;;4.00;2.10;;;;;;;5.02;63.91;99996.69;10418663;28;20049;-64
2023/01/30 11:36:41;;;;;;;4.43;2.33;;;;;;;5.16;64.07;100010.00;10412520;28;20064;-64
2023/01/30 11:42:04;;;;;;;4.95;2.42;;;;;;;5.19;63.83;100002.94;10423919;28;20428;-64
2023/01/30 11:47:11;;;;;;;4.32;2.10;;;;;;;5.00;63.68;100016.63;10421086;28;20409;-64
2023/01/30 11:52:17;;;;;;;4.78;2.15;;;;;;;5.19;63.61;100009.88;10420579;28;20064;-64
2023/01/30 11:57:19;;;;;;;2.97;1.98;;;;;;;5.30;63.26;100010.34;10417859;28;20053;-64
2023/01/30 12:02:32;;;;;;;6.80;2.15;;;;;;;5.04;63.02;99987.13;10421751;28;20746;-64
2023/01/30 12:07:36;;;;;;;5.47;2.10;;;;;;;5.50;62.77;99980.16;10438157;28;20420;-64
2023/01/30 12:12:48;;;;;;;4.43;1.90;;;;;;;5.85;61.42;99977.94;10425115;28;20122;-64
2023/01/30 12:18:13;;;;;;;6.93;2.15;;;;;;;5.90;61.05;99978.63;10414503;28;20064;-64
2023/01/30 12:23:32;;;;;;;5.97;2.25;;;;;;;6.03;60.33;99974.59;10425493;28;20085;-64
2023/01/30 12:28:45;;;;;;;8.93;2.17;;;;;;;5.81;60.63;99987.59;10422206;28;20049;-64
2023/01/30 12:33:48;;;;;;;9.45;2.20;;;;;;;6.06;59.77;99998.66;10425308;28;20045;-64
2023/01/30 12:39:01;;;;;;;6.20;2.22;;;;;;;6.30;58.94;99989.94;10420684;28;20056;-64
2023/01/30 12:44:36;;;;;;;8.40;2.53;;;;;;;6.34;57.87;99994.09;10424694;28;20288;-64
2023/01/30 12:50:05;;;;;;;9.05;2.42;;;;;;;6.33;57.77;99986.34;10420329;28;20059;-64
2023/01/30 12:55:07;;;;;;;12.10;2.63;;;;;;;6.39;57.20;99993.06;10421562;28;20299;-64
2023/01/30 13:00:44;;;;;;;10.60;2.55;;;;;;;6.51;54.79;99995.97;10421996;28;20164;-63
2023/01/30 13:05:54;;;;;;;13.70;2.60;;;;;;;6.51;55.24;100010.75;10354849;28;20060;-64
2023/01/30 13:11:11;;;;;;;11.55;2.50;;;;;;;6.60;55.26;100018.13;10423763;28;20139;-64
2023/01/30 13:16:35;;;;;;;13.63;2.80;;;;;;;6.66;54.92;100010.94;10419066;28;20064;-64
2023/01/30 13:21:52;;;;;;;13.50;2.55;;;;;;;6.66;54.15;100026.53;10421079;28;20045;-64
2023/01/30 13:26:59;;;;;;;13.25;3.00;;;;;;;6.64;54.56;100025.75;10419610;28;20056;-64
2023/01/30 13:32:04;;;;;;;15.48;2.50;;;;;;;6.65;55.02;100035.25;10424369;28;20322;-64
2023/01/30 13:37:11;;;;;;;10.98;2.70;;;;;;;6.77;54.47;100031.28;10419267;28;20060;-64
2023/01/30 13:42:48;;;;;;;11.23;2.53;;;;;;;6.62;54.28;100034.50;10424443;28;20080;-64
2023/01/30 13:48:18;;;;;;;13.45;2.83;;;;;;;6.58;53.97;100072.78;10414831;28;20048;-64
2023/01/30 13:53:38;;;;;;;10.40;2.80;;;;;;;6.79;53.42;100056.28;10430873;28;20057;-64
2023/01/30 13:58:54;;;;;;;12.60;2.80;;;;;;;7.10;52.46;100069.66;10425162;28;20071;-64
2023/01/30 14:04:23;;;;;;;11.02;2.20;;;;;;;7.27;52.22;100065.47;10432178;28;20052;-64
2023/01/30 14:09:28;;;;;;;15.05;3.42;;;;;;;7.46;51.46;100072.41;10427526;28;20045;-64
2023/01/30 14:14:35;;;;;;;10.30;2.50;;;;;;;7.56;51.90;100072.81;10425765;28;20040;-64
2023/01/30 14:20:06;;;;;;;12.73;2.80;;;;;;;7.33;51.15;100076.44;10419674;28;20107;-65
2023/01/30 14:25:27;;;;;;;11.50;2.70;;;;;;;6.99;51.42;100103.09;10408551;28;20045;-64
2023/01/30 14:30:48;;;;;;;16.30;2.92;;;;;;;6.96;52.31;100115.34;10426888;28;20436;-64
2023/01/30 14:36:02;;;;;;;17.02;2.80;;;;;;;6.75;51.42;100132.72;10425806;28;20548;-64
2023/01/30 14:41:03;;;;;;;13.63;2.83;;;;;;;6.50;51.86;100136.34;10422299;28;20049;-64
2023/01/30 14:46:17;;;;;;;14.60;2.70;;;;;;;6.43;51.36;100124.53;10425673;28;20061;-64
2023/01/30 14:51:22;;;;;;;13.93;3.10;;;;;;;6.43;52.30;100134.91;10428272;28;20136;-64
2023/01/30 14:56:39;;;;;;;11.18;2.75;;;;;;;6.39;52.11;100135.94;10423561;28;20087;-64
2023/01/30 15:02:22;;;;;;;12.38;2.70;;;;;;;6.16;51.92;100145.44;10426529;28;20063;-64
2023/01/30 15:07:48;;;;;;;19.55;3.58;;;;;;;5.90;52.98;100148.16;10405599;28;20126;-64
2023/01/30 15:13:19;;;;;;;15.63;3.28;;;;;;;5.75;53.55;100151.31;10426436;28;20423;-64
2023/01/30 15:18:28;;;;;;;20.17;3.83;;;;;;;5.79;53.41;100160.69;10404887;28;20041;-64
2023/01/30 15:23:57;;;;;;;13.45;2.85;;;;;;;5.71;53.38;100167.91;10428515;28;20060;-64
2023/01/30 15:29:40;;;;;;;11.93;2.70;;;;;;;5.49;53.94;100173.00;10422757;28;20547;-64
2023/01/30 15:34:57;;;;;;;14.57;3.60;;;;;;;5.40;53.71;100172.47;10281683;28;20804;-63
2023/01/30 15:40:17;;;;;;;13.25;3.15;;;;;;;5.30;54.47;100161.59;10400312;28;20061;-63
2023/01/30 15:45:47;;;;;;;12.57;2.90;;;;;;;5.14;54.96;100178.56;10425863;28;20897;-64
2023/01/30 15:50:52;;;;;;;15.50;3.42;;;;;;;5.18;54.88;100185.34;10422693;28;20087;-64
2023/01/30 15:55:54;;;;;;;19.00;3.10;;;;;;;5.06;55.23;100183.16;10420746;28;20657;-64
2023/01/30 16:00:59;;;;;;;17.77;3.50;;;;;;;4.98;55.30;100194.69;10424974;28;20076;-64
2023/01/30 16:06:02;;;;;;;18.15;3.28;;;;;;;4.94;55.27;100193.09;10422501;28;20056;-64
2023/01/30 16:11:04;;;;;;;11.57;2.80;;;;;;;4.84;55.70;100218.44;10425830;28;20130;-64
2023/01/30 16:16:14;;;;;;;21.63;3.88;;;;;;;4.84;55.36;100235.75;10415917;28;20505;-64
2023/01/30 16:21:33;;;;;;;15.73;3.25;;;;;;;4.82;55.53;100232.34;10427210;28;20118;-64
2023/01/30 16:26:35;;;;;;;16.63;4.03;;;;;;;4.84;55.83;100238.34;10420674;28;20493;-64
2023/01/30 16:31:38;;;;;;;16.98;3.28;;;;;;;4.91;55.93;100256.22;10420637;28;20052;-64
2023/01/30 16:36:42;;;;;;;14.10;3.72;;;;;;;4.83;55.96;100268.56;10406116;28;20163;-64
2023/01/30 16:41:53;;;;;;;16.67;3.92;;;;;;;4.81;55.99;100280.72;10425880;28;20064;-64
2023/01/30 16:46:58;;;;;;;14.85;3.17;;;;;;;4.89;56.01;100291.72;10421798;28;20485;-64
2023/01/30 16:52:33;;;;;;;13.55;2.95;;;;;;;4.96;55.70;100302.75;10422292;28;20045;-64
2023/01/30 16:57:41;;;;;;;15.85;3.15;;;;;;;4.99;55.86;100310.41;10417035;28;20065;-64
2023/01/30 17:02:53;;;;;;;13.40;3.15;;;;;;;4.88;55.99;100326.31;10418761;28;20394;-64
2023/01/30 17:07:56;;;;;;;22.25;3.90;;;;;;;4.75;56.57;100334.47;10418287;28;20045;-63
2023/01/30 17:12:58;;;;;;;21.88;4.57;;;;;;;4.67;56.92;100339.88;10424156;28;20156;-64
2023/01/30 17:18:00;;;;;;;14.80;3.70;;;;;;;4.67;57.06;100353.69;10415370;28;20405;-64
2023/01/30 17:23:07;;;;;;;13.02;3.40;;;;;;;4.69;57.17;100361.41;10422152;28;20055;-64
2023/01/30 17:28:17;;;;;;;19.95;3.92;;;;;;;4.90;56.84;100365.13;10416823;28;20505;-64
2023/01/30 17:33:19;;;;;;;22.80;4.10;;;;;;;5.08;56.65;100382.72;10419092;28;20057;-64
2023/01/30 17:38:20;;;;;;;28.63;6.53;;;;;;;5.19;56.53;100396.19;10420626;28;20045;-64
2023/01/30 17:43:22;;;;;;;23.58;5.45;;;;;;;5.21;56.28;100400.44;10425168;28;20513;-64
2023/01/30 17:48:23;;;;;;;17.85;3.75;;;;;;;5.27;56.34;100409.75;10421076;28;20053;-64
2023/01/30 17:53:25;;;;;;;19.38;3.88;;;;;;;5.29;56.60;100408.81;10420442;28;20045;-63
2023/01/30 17:58:27;;;;;;;22.05;4.63;;;;;;;5.37;56.14;100417.22;10416860;28;20207;-63
2023/01/30 18:03:28;;;;;;;20.33;3.63;;;;;;;5.45;56.02;100415.22;10424601;28;20053;-64
2023/01/30 18:08:30;;;;;;;22.83;4.85;;;;;;;5.50;56.08;100438.44;10419450;28;20080;-63
2023/01/30 18:13:32;;;;;;;18.40;4.43;;;;;;;5.51;56.09;100440.16;10421680;28;20045;-64
2023/01/30 18:18:36;;;;;;;18.67;5.32;;;;;;;5.54;55.99;100446.09;10412151;28;20505;-65
2023/01/30 18:23:37;;;;;;;20.92;3.92;;;;;;;5.48;55.92;100453.22;10420884;28;20087;-66
2023/01/30 18:28:39;;;;;;;21.20;4.07;;;;;;;5.53;55.75;100459.13;10413490;28;20056;-66
2023/01/30 18:33:43;;;;;;;16.63;3.63;;;;;;;5.49;55.77;100470.50;10422773;28;20145;-65
2023/01/30 18:38:45;;;;;;;22.13;3.95;;;;;;;5.47;56.96;100495.63;10422706;28;20048;-65
2023/01/30 18:43:52;;;;;;;25.70;4.13;;;;;;;5.41;58.00;100496.63;10427753;28;20421;-65
2023/01/30 18:48:54;;;;;;;17.83;3.95;;;;;;;5.29;58.65;100503.91;10422303;28;20551;-65
2023/01/30 18:53:57;;;;;;;19.50;3.72;;;;;;;5.37;58.65;100501.97;10428037;28;20142;-66
2023/01/30 18:59:04;;;;;;;23.80;5.75;;;;;;;5.41;58.80;100517.38;10422713;28;20171;-66
2023/01/30 19:04:07;;;;;;;22.77;5.38;;;;;;;5.45;58.74;100513.81;10427956;28;20430;-65
2023/01/30 19:09:14;;;;;;;18.63;4.35;;;;;;;5.36;58.38;100521.00;10419984;28;20427;-66
2023/01/30 19:14:16;;;;;;;29.98;8.02;;;;;;;5.25;58.56;100515.28;10429674;28;20505;-65
2023/01/30 19:19:18;;;;;;;24.17;7.63;;;;;;;5.16;58.15;100520.75;10422369;28;20067;-65
2023/01/30 19:24:19;;;;;;;19.30;4.97;;;;;;;5.06;58.39;100519.31;10429165;28;20053;-65
2023/01/30 19:29:21;;;;;;;22.00;4.68;;;;;;;5.13;58.23;100531.19;10417695;28;20564;-65
2023/01/30 19:34:23;;;;;;;18.80;4.93;;;;;;;5.18;58.15;100539.69;10421755;28;20249;-65
2023/01/30 19:39:24;;;;;;;18.35;4.15;;;;;;;5.25;58.01;100547.25;10415222;28;21218;-66
2023/01/30 19:44:26;;;;;;;21.33;5.40;;;;;;;5.22;57.99;100567.25;10423306;28;20072;-65
2023/01/30 19:49:28;;;;;;;23.13;4.88;;;;;;;5.16;58.18;100565.69;10414994;28;20049;-66
2023/01/30 19:54:31;;;;;;;22.80;4.70;;;;;;;5.24;58.43;100576.69;10415977;28;20041;-65
2023/01/30 19:59:37;;;;;;;21.35;4.65;;;;;;;5.19;58.68;100582.88;10419979;28;20057;-66
2023/01/30 20:04:39;;;;;;;20.75;4.85;;;;;;;5.07;59.01;100578.88;10422167;28;20370;-65
2023/01/30 20:09:41;;;;;;;27.58;5.93;;;;;;;5.09;59.20;100587.47;10427795;28;20053;-66
2023/01/30 20:14:42;;;;;;;21.25;3.88;;;;;;;5.15;58.87;100602.84;10427842;28;20477;-66
2023/01/30 20:19:44;;;;;;;23.08;4.32;;;;;;;5.22;58.95;100609.59;10427399;28;20413;-66
2023/01/30 20:24:47;;;;;;;22.23;4.68;;;;;;;5.24;58.89;100612.13;10426771;28;20060;-66
2023/01/30 20:29:49;;;;;;;27.17;6.35;;;;;;;5.23;58.92;100613.00;10427227;28;20428;-65
2023/01/30 20:34:50;;;;;;;21.00;4.10;;;;;;;5.24;58.73;100607.81;10427266;28;20052;-66
2023/01/30 20:39:52;;;;;;;21.88;6.45;;;;;;;5.15;58.92;100617.56;10427066;28;20493;-65
2023/01/30 20:44:54;;;;;;;25.83;4.93;;;;;;;5.15;59.00;100631.38;10427050;28;20504;-66
2023/01/30 20:49:55;;;;;;;21.63;4.18;;;;;;;5.18;59.37;100636.50;10422692;28;20059;-66
2023/01/30 20:54:57;;;;;;;23.88;3.97;;;;;;;5.14;59.90;100659.94;10425242;28;20049;-66
2023/01/30 21:00:00;;;;;;;26.00;4.38;;;;;;;5.04;60.56;100672.31;10425151;28;20528;-66
2023/01/30 21:05:02;;;;;;;23.55;4.50;;;;;;;4.90;60.69;100676.13;10427481;28;20057;-66
2023/01/30 21:10:04;;;;;;;29.08;5.57;;;;;;;4.94;60.74;100685.53;10426587;28;20203;-66
2023/01/30 21:15:07;;;;;;;21.10;6.53;;;;;;;4.79;61.06;100684.16;10425391;28;20048;-66
2023/01/30 21:20:09;;;;;;;24.63;5.00;;;;;;;4.64;61.60;100693.13;10424932;28;20059;-65
2023/01/30 21:25:11;;;;;;;21.27;4.75;;;;;;;4.51;61.67;100694.34;10425414;28;20064;-65
2023/01/30 21:30:13;;;;;;;22.85;4.90;;;;;;;4.43;62.10;100701.38;10425342;28;20615;-65
2023/01/30 21:35:15;;;;;;;21.48;4.53;;;;;;;4.38;62.51;100703.25;10425034;28;20049;-65
2023/01/30 21:45:37;;;;;;;28.70;5.35;;;;;;;4.30;62.96;100715.50;10422971;28;20287;-65
2023/01/30 21:50:39;;;;;;;21.27;4.68;;;;;;;4.27;63.24;100706.97;10424402;28;20694;-65
2023/01/30 21:55:41;;;;;;;26.50;5.60;;;;;;;4.15;63.77;100710.66;10423531;28;20069;-65
2023/01/30 22:00:43;;;;;;;24.35;5.30;;;;;;;4.23;63.59;100713.94;10424465;28;20052;-65
2023/01/30 22:05:45;;;;;;;26.05;4.80;;;;;;;4.06;63.87;100739.34;10423964;28;20056;-65
2023/01/30 22:10:47;;;;;;;25.95;6.63;;;;;;;4.11;63.88;100731.50;10421577;28;20110;-65
2023/01/30 22:15:49;;;;;;;23.33;4.60;;;;;;;4.05;63.95;100737.63;10432241;28;20136;-65
2023/01/30 22:20:51;;;;;;;22.42;4.47;;;;;;;3.98;64.14;100740.38;10433420;28;20127;-65
2023/01/30 22:25:53;;;;;;;31.05;8.57;;;;;;;4.11;64.15;100742.66;10430718;28;20056;-65
2023/01/30 22:31:11;;;;;;;21.02;5.75;;;;;;;4.02;64.68;100748.03;10432992;28;20099;-65
2023/01/30 22:36:13;;;;;;;26.98;8.77;;;;;;;4.03;64.28;100739.38;10426523;28;20061;-65
2023/01/30 22:41:18;;;;;;;33.38;12.05;;;;;;;4.19;64.04;100730.41;10428820;28;20069;-65
2023/01/30 22:46:22;;;;;;;32.72;10.00;;;;;;;3.82;64.91;100735.44;10429772;28;20068;-65
2023/01/30 22:51:26;;;;;;;31.63;8.93;;;;;;;3.78;65.36;100733.81;10430891;28;20049;-65
2023/01/30 22:56:33;;;;;;;33.10;8.73;;;;;;;3.88;65.32;100758.66;10426627;28;20417;-65
2023/01/30 23:01:43;;;;;;;28.48;8.32;;;;;;;3.90;65.37;100758.66;10429733;28;20063;-65
2023/01/30 23:06:46;;;;;;;32.20;9.50;;;;;;;3.93;65.54;100766.34;10429552;28;20488;-65
2023/01/30 23:22:31;;;;;;;27.75;4.57;;;;;;;3.82;66.44;100791.53;10428650;28;20048;-65
2023/01/30 23:27:33;;;;;;;19.85;4.68;;;;;;;3.82;65.92;100766.50;10426991;28;20166;-65
2023/01/30 23:32:35;;;;;;;17.65;4.03;;;;;;;3.80;65.83;100767.44;10426201;28;20084;-65
2023/01/30 23:42:58;;;;;;;15.18;3.35;;;;;;;3.61;66.16;100782.44;10427913;28;20067;-65
2023/01/30 23:48:00;;;;;;;10.10;3.05;;;;;;;3.45;66.52;100778.41;10428228;28;20057;-65
2023/01/30 23:53:03;;;;;;;11.95;4.10;;;;;;;3.35;66.40;100758.78;10424307;28;20049;-65
2023/01/30 23:58:04;;;;;;;11.80;2.97;;;;;;;3.11;67.58;100763.50;10424616;28;20052;-65
